createdAt,value
2023-05-12T00:02:00.728Z,95.03
2023-05-12T00:04:30.203Z,95.18
2023-05-12T00:06:58.161Z,94.84
2023-05-12T00:09:26.130Z,94.79
2023-05-12T00:11:55.490Z,94.97
2023-05-12T00:14:23.476Z,95.14
2023-05-12T00:16:52.188Z,95.06
2023-05-12T00:19:20.362Z,95.18
2023-05-12T00:21:48.440Z,94.92
2023-05-12T00:24:16.296Z,95.37
2023-05-12T00:26:44.221Z,95.21
2023-05-12T00:29:13.489Z,95.33
2023-05-12T00:31:41.472Z,95.19
2023-05-12T00:34:09.401Z,95.11
2023-05-12T00:36:37.393Z,94.69
2023-05-12T00:39:05.360Z,94.92
2023-05-12T00:41:33.402Z,94.92
2023-05-12T00:44:01.327Z,95.02
2023-05-12T00:46:30.919Z,94.79
2023-05-12T00:48:59.524Z,93.39
2023-05-12T00:51:27.789Z,93.41
2023-05-12T00:53:56.927Z,92.87
2023-05-12T00:56:25.167Z,92.07
2023-05-12T00:58:53.051Z,92.62
2023-05-12T01:01:21.055Z,92.45
2023-05-12T01:03:50.506Z,92.51
2023-05-12T01:06:23.745Z,92.75
2023-05-12T01:08:52.332Z,92.75
2023-05-12T01:11:20.227Z,92.95
2023-05-12T01:13:48.182Z,92.89
2023-05-12T01:16:18.343Z,93.25
2023-05-12T01:18:51.368Z,93.74
2023-05-12T01:21:22.540Z,93.65
2023-05-12T01:23:56.051Z,94.05
2023-05-12T01:26:25.907Z,94.12
2023-05-12T01:28:55.168Z,94.08
2023-05-12T01:31:23.663Z,94.20
2023-05-12T01:33:51.743Z,94.25
2023-05-12T01:36:19.588Z,93.75
2023-05-12T01:38:47.456Z,93.65
2023-05-12T01:41:15.467Z,93.51
2023-05-12T01:43:44.660Z,94.28
2023-05-12T01:46:12.544Z,94.17
2023-05-12T01:48:40.397Z,94.10
2023-05-12T01:51:09.477Z,94.35
2023-05-12T01:53:37.369Z,93.95
2023-05-12T01:56:05.966Z,93.97
2023-05-12T01:58:33.916Z,94.09
2023-05-12T02:01:03.733Z,93.84
2023-05-12T02:03:32.014Z,93.35
2023-05-12T02:06:00.191Z,93.28
2023-05-12T02:08:30.599Z,93.34
2023-05-12T02:11:06.168Z,92.80
2023-05-12T02:13:34.738Z,93.46
2023-05-12T02:16:04.146Z,93.72
2023-05-12T02:18:32.153Z,94.26
2023-05-12T02:21:00.191Z,93.91
2023-05-12T02:23:28.021Z,93.77
2023-05-12T02:25:56.075Z,94.67
2023-05-12T02:28:24.193Z,94.78
2023-05-12T02:30:53.291Z,94.73
2023-05-12T02:33:23.351Z,95.21
2023-05-12T02:35:51.147Z,95.03
2023-05-12T02:38:19.017Z,95.00
2023-05-12T02:40:47.703Z,94.83
2023-05-12T02:43:15.570Z,95.27
2023-05-12T02:45:43.698Z,95.36
2023-05-12T02:48:11.624Z,95.62
2023-05-12T02:50:40.829Z,95.79
2023-05-12T02:53:08.595Z,95.30
2023-05-12T02:55:36.595Z,94.79
2023-05-12T02:58:04.744Z,95.13
2023-05-12T03:00:32.621Z,94.87
2023-05-12T03:03:00.811Z,95.38
2023-05-12T03:05:28.698Z,95.07
2023-05-12T03:07:58.215Z,95.47
2023-05-12T03:10:26.181Z,95.46
2023-05-12T03:12:53.975Z,95.46
2023-05-12T03:15:21.805Z,94.64
2023-05-12T03:17:49.707Z,94.16
2023-05-12T03:20:17.867Z,94.42
2023-05-12T03:22:45.878Z,94.84
2023-05-12T03:25:16.899Z,95.27
2023-05-12T03:27:44.672Z,95.67
2023-05-12T03:30:13.662Z,94.81
2023-05-12T03:32:41.578Z,95.55
2023-05-12T03:35:09.797Z,95.40
2023-05-12T03:37:37.708Z,94.83
2023-05-12T03:40:06.310Z,95.08
2023-05-12T03:42:35.711Z,94.69
2023-05-12T03:45:03.454Z,95.01
2023-05-12T03:47:31.329Z,96.22
2023-05-12T03:49:59.167Z,95.94
2023-05-12T03:52:27.152Z,94.52
2023-05-12T03:54:55.088Z,94.51
2023-05-12T03:57:22.803Z,95.41
2023-05-12T03:59:52.004Z,95.18
2023-05-12T04:02:19.893Z,93.77
2023-05-12T04:04:48.062Z,92.69
2023-05-12T04:07:15.951Z,92.39
2023-05-12T04:09:44.041Z,92.32
2023-05-12T04:12:12.060Z,92.17
2023-05-12T04:14:43.645Z,92.01
2023-05-12T04:17:12.738Z,92.25
2023-05-12T04:19:40.615Z,92.31
2023-05-12T04:22:08.378Z,92.61
2023-05-12T04:24:38.879Z,93.29
2023-05-12T04:27:07.716Z,93.70
2023-05-12T04:29:35.983Z,93.79
2023-05-12T04:32:04.082Z,93.76
2023-05-12T04:34:33.198Z,93.36
2023-05-12T04:37:01.241Z,93.79
2023-05-12T04:39:29.265Z,93.33
2023-05-12T04:41:57.533Z,93.62
2023-05-12T04:44:25.465Z,93.63
2023-05-12T04:46:56.153Z,93.59
2023-05-12T04:49:24.348Z,93.68
2023-05-12T04:51:53.704Z,93.97
2023-05-12T04:54:21.888Z,93.83
2023-05-12T04:56:49.826Z,93.82
2023-05-12T04:59:17.739Z,93.35
2023-05-12T05:01:45.905Z,93.48
2023-05-12T05:04:13.855Z,93.65
2023-05-12T05:06:41.833Z,93.20
2023-05-12T05:09:11.256Z,92.87
2023-05-12T05:11:39.013Z,92.63
2023-05-12T05:14:06.894Z,92.77
2023-05-12T05:16:35.579Z,92.45
2023-05-12T05:19:06.405Z,92.44
2023-05-12T05:21:37.353Z,92.37
2023-05-12T05:24:06.725Z,92.41
2023-05-12T05:26:37.539Z,91.38
2023-05-12T05:29:06.326Z,90.87
2023-05-12T05:31:34.439Z,90.71
2023-05-12T05:34:02.681Z,90.94
2023-05-12T05:36:31.666Z,90.03
2023-05-12T05:38:59.621Z,90.07
2023-05-12T05:41:27.807Z,90.54
2023-05-12T05:43:57.003Z,90.92
2023-05-12T05:46:24.835Z,89.95
2023-05-12T05:48:52.776Z,88.43
2023-05-12T05:51:20.494Z,87.68
2023-05-12T05:53:48.227Z,88.02
2023-05-12T05:56:16.066Z,87.10
2023-05-12T05:58:43.790Z,87.85
2023-05-12T06:01:13.237Z,87.33
2023-05-12T06:03:41.298Z,89.22
2023-05-12T06:06:09.259Z,89.71
2023-05-12T06:08:37.025Z,87.14
2023-05-12T06:11:05.741Z,86.33
2023-05-12T06:13:33.586Z,86.05
2023-05-12T06:16:01.477Z,87.52
2023-05-12T06:18:30.704Z,86.36
2023-05-12T06:20:58.623Z,86.87
2023-05-12T06:23:26.540Z,86.98
2023-05-12T06:25:54.631Z,86.37
2023-05-12T06:28:22.551Z,85.97
2023-05-12T06:30:50.251Z,86.63
2023-05-12T06:33:18.026Z,86.13
2023-05-12T06:35:47.226Z,85.57
2023-05-12T06:38:14.970Z,87.05
2023-05-12T06:40:42.636Z,87.45
2023-05-12T06:43:10.682Z,86.94
2023-05-12T06:45:38.742Z,86.10
2023-05-12T06:48:07.122Z,84.89
2023-05-12T06:50:34.934Z,86.00
2023-05-12T06:53:05.489Z,85.17
2023-05-12T06:55:33.327Z,85.15
2023-05-12T06:58:01.155Z,84.77
2023-05-12T07:00:28.952Z,84.25
2023-05-12T07:02:56.799Z,84.82
2023-05-12T07:05:25.232Z,87.36
2023-05-12T07:07:53.044Z,86.47
2023-05-12T07:10:22.354Z,85.12
2023-05-12T07:12:50.604Z,85.23
2023-05-12T07:15:20.127Z,87.46
2023-05-12T07:17:49.379Z,88.08
2023-05-12T07:20:19.903Z,86.33
2023-05-12T07:22:48.849Z,85.21
2023-05-12T07:25:17.083Z,84.61
2023-05-12T07:27:46.515Z,85.88
2023-05-12T07:30:14.893Z,86.55
2023-05-12T07:32:42.996Z,86.74
2023-05-12T07:35:11.257Z,85.98
2023-05-12T07:37:39.606Z,84.92
2023-05-12T07:40:08.874Z,86.37
2023-05-12T07:42:37.378Z,86.86
2023-05-12T07:45:07.322Z,86.00
2023-05-12T07:47:35.162Z,86.14
2023-05-12T07:50:02.981Z,86.71
2023-05-12T07:52:30.975Z,86.53
2023-05-12T07:54:58.948Z,85.62
2023-05-12T07:57:26.689Z,84.66
2023-05-12T07:59:54.493Z,85.19
2023-05-12T08:02:23.690Z,84.57
2023-05-12T08:04:52.076Z,84.81
2023-05-12T08:07:19.854Z,84.40
2023-05-12T08:09:47.873Z,83.38
2023-05-12T08:12:15.784Z,85.26
2023-05-12T08:14:43.509Z,83.42
2023-05-12T08:17:11.458Z,84.42
2023-05-12T08:19:41.970Z,84.05
2023-05-12T08:22:09.876Z,83.11
2023-05-12T08:24:38.130Z,82.36
2023-05-12T08:27:06.267Z,81.69
2023-05-12T08:29:34.112Z,81.55
2023-05-12T08:32:02.356Z,80.56
2023-05-12T08:34:30.960Z,81.82
2023-05-12T08:37:00.485Z,82.44
2023-05-12T08:39:31.156Z,82.14
2023-05-12T08:42:10.760Z,80.52
2023-05-12T08:44:39.443Z,81.68
2023-05-12T08:47:08.219Z,80.10
2023-05-12T08:49:38.786Z,79.83
2023-05-12T08:52:10.364Z,79.94
2023-05-12T08:54:52.324Z,79.88
2023-05-12T08:57:23.912Z,79.08
2023-05-12T08:59:55.667Z,78.83
2023-05-12T09:02:24.687Z,79.46
2023-05-12T09:04:55.030Z,78.15
2023-05-12T09:07:24.712Z,79.45
2023-05-12T09:09:58.089Z,81.66
2023-05-12T09:12:28.275Z,82.87
2023-05-12T09:15:03.984Z,84.71
2023-05-12T09:17:31.906Z,83.50
2023-05-12T09:19:59.810Z,82.86
2023-05-12T09:22:35.041Z,81.75
2023-05-12T09:25:15.258Z,81.42
2023-05-12T09:27:43.050Z,80.80
2023-05-12T09:30:11.337Z,79.47
2023-05-12T09:32:39.218Z,79.37
2023-05-12T09:35:11.239Z,79.23
2023-05-12T09:37:42.928Z,78.34
2023-05-12T09:40:13.948Z,77.19
2023-05-12T09:42:43.774Z,75.93
2023-05-12T09:45:12.061Z,75.03
2023-05-12T09:47:41.665Z,74.99
2023-05-12T09:50:10.151Z,75.37
2023-05-12T09:52:39.878Z,75.43
2023-05-12T09:55:12.291Z,73.87
2023-05-12T09:57:41.533Z,72.66
2023-05-12T10:00:26.363Z,73.22
2023-05-12T10:03:03.071Z,75.21
2023-05-12T10:05:34.276Z,73.28
2023-05-12T10:08:05.952Z,73.73
2023-05-12T10:10:35.619Z,73.41
2023-05-12T10:13:04.656Z,72.65
2023-05-12T10:15:34.602Z,73.54
2023-05-12T10:18:05.515Z,73.45
2023-05-12T10:20:34.164Z,75.03
2023-05-12T10:23:04.306Z,74.97
2023-05-12T10:25:34.766Z,74.15
2023-05-12T10:28:05.216Z,74.34
2023-05-12T10:30:33.632Z,74.45
2023-05-12T10:33:02.946Z,75.04
2023-05-12T10:35:35.174Z,75.19
2023-05-12T10:38:07.121Z,75.69
2023-05-12T10:40:34.994Z,74.92
2023-05-12T10:43:04.931Z,74.91
2023-05-12T10:45:37.820Z,75.12
2023-05-12T10:48:07.214Z,74.37
2023-05-12T10:50:35.153Z,75.08
2023-05-12T10:53:03.195Z,75.48
2023-05-12T10:55:33.130Z,75.90
2023-05-12T10:58:11.726Z,75.04
2023-05-12T11:00:48.668Z,75.09
2023-05-12T11:03:19.951Z,74.36
2023-05-12T11:05:49.029Z,73.76
2023-05-12T11:08:18.134Z,74.07
2023-05-12T11:10:47.510Z,74.07
2023-05-12T11:13:17.359Z,74.37
2023-05-12T11:15:45.638Z,74.46
2023-05-12T11:18:13.493Z,73.69
2023-05-12T11:20:41.971Z,73.51
2023-05-12T11:23:09.948Z,72.29
2023-05-12T11:25:37.905Z,72.66
2023-05-12T11:28:06.025Z,72.27
2023-05-12T11:30:35.635Z,74.32
2023-05-12T11:33:04.390Z,73.50
2023-05-12T11:35:33.097Z,73.36
2023-05-12T11:38:03.097Z,72.97
2023-05-12T11:40:30.852Z,73.22
2023-05-12T11:43:01.661Z,73.49
2023-05-12T11:45:31.430Z,72.84
2023-05-12T11:48:09.093Z,73.00
2023-05-12T11:50:39.942Z,72.88
2023-05-12T11:53:15.473Z,73.77
2023-05-12T11:55:49.725Z,76.00
2023-05-12T11:58:22.990Z,75.81
2023-05-12T12:03:20.894Z,73.05
2023-05-12T12:05:59.855Z,74.17
2023-05-12T12:08:27.754Z,72.31
2023-05-12T12:10:56.348Z,73.19
2023-05-12T12:13:28.683Z,72.66
2023-05-12T12:15:56.513Z,72.44
2023-05-12T12:18:27.874Z,71.27
2023-05-12T12:20:56.085Z,72.32
2023-05-12T12:23:23.855Z,72.18
2023-05-12T12:25:51.610Z,72.82
2023-05-12T12:28:19.801Z,71.51
2023-05-12T12:30:48.001Z,71.04
2023-05-12T12:33:16.908Z,70.53
2023-05-12T12:35:47.963Z,69.88
2023-05-12T12:38:15.760Z,69.45
2023-05-12T12:40:43.713Z,68.72
2023-05-12T12:43:12.001Z,67.21
2023-05-12T12:45:39.759Z,67.31
2023-05-12T12:48:09.166Z,65.50
2023-05-12T12:50:37.677Z,66.78
2023-05-12T12:53:07.954Z,65.40
2023-05-12T12:55:35.876Z,65.55
2023-05-12T12:58:04.234Z,65.18
2023-05-12T13:00:32.853Z,65.43
2023-05-12T13:03:01.373Z,65.64
2023-05-12T13:05:29.557Z,66.12
2023-05-12T13:07:57.658Z,65.73
2023-05-12T13:10:27.013Z,65.45
2023-05-12T13:12:55.050Z,65.93
2023-05-12T13:15:24.150Z,65.00
2023-05-12T13:17:52.653Z,65.85
2023-05-12T13:20:20.913Z,66.82
2023-05-12T13:22:48.982Z,67.84
2023-05-12T13:25:16.798Z,66.40
2023-05-12T13:27:46.007Z,65.55
2023-05-12T13:30:14.483Z,66.73
2023-05-12T13:32:42.851Z,67.44
2023-05-12T13:35:11.233Z,69.28
2023-05-12T13:37:38.983Z,68.30
2023-05-12T13:40:08.478Z,68.26
2023-05-12T13:42:36.894Z,68.80
2023-05-12T13:45:07.332Z,70.39
2023-05-12T13:47:35.808Z,70.58
2023-05-12T13:50:03.854Z,71.19
2023-05-12T13:52:31.851Z,69.80
2023-05-12T13:54:59.887Z,70.36
2023-05-12T13:57:27.734Z,70.22
2023-05-12T13:59:57.879Z,70.63
2023-05-12T14:02:27.070Z,69.30
2023-05-12T14:04:54.961Z,69.11
2023-05-12T14:07:26.608Z,69.73
2023-05-12T14:09:54.381Z,69.72
2023-05-12T14:12:22.319Z,70.16
2023-05-12T14:14:51.410Z,69.03
2023-05-12T14:17:19.782Z,69.15
2023-05-12T14:19:49.188Z,67.67
2023-05-12T14:22:25.581Z,67.01
2023-05-12T14:24:55.620Z,67.01
2023-05-12T14:27:24.081Z,66.41
2023-05-12T14:29:51.852Z,65.39
2023-05-12T14:32:19.661Z,64.79
2023-05-12T14:34:49.426Z,64.60
2023-05-12T14:37:17.233Z,64.16
2023-05-12T14:39:45.076Z,63.91
2023-05-12T14:42:13.012Z,62.81
2023-05-12T14:44:40.924Z,66.43
2023-05-12T14:47:09.369Z,67.72
2023-05-12T14:49:37.357Z,68.33
2023-05-12T14:52:07.088Z,69.37
2023-05-12T14:54:35.053Z,69.17
2023-05-12T14:57:03.678Z,67.79
2023-05-12T14:59:31.596Z,67.00
2023-05-12T15:01:59.429Z,66.00
2023-05-12T15:04:28.076Z,65.51
2023-05-12T15:06:56.058Z,64.17
2023-05-12T15:09:25.706Z,64.33
2023-05-12T15:11:53.626Z,62.39
2023-05-12T15:14:21.592Z,60.90
2023-05-12T15:16:49.627Z,61.05
2023-05-12T15:19:17.847Z,60.79
2023-05-12T15:21:45.736Z,60.61
2023-05-12T15:24:13.626Z,60.54
2023-05-12T15:26:43.138Z,61.75
2023-05-12T15:29:11.206Z,62.23
2023-05-12T15:31:39.427Z,62.67
2023-05-12T15:34:07.640Z,63.11
2023-05-12T15:36:35.502Z,63.31
2023-05-12T15:39:05.364Z,63.22
2023-05-12T15:41:33.917Z,64.15
2023-05-12T15:44:03.319Z,64.34
2023-05-12T15:46:31.648Z,63.40
2023-05-12T15:49:00.148Z,64.31
2023-05-12T15:51:28.483Z,65.23
2023-05-12T15:53:57.978Z,66.06
2023-05-12T15:56:26.075Z,66.34
2023-05-12T15:58:54.591Z,65.62
2023-05-12T16:01:23.829Z,68.64
2023-05-12T16:03:52.940Z,67.84
2023-05-12T16:06:21.849Z,65.13
2023-05-12T16:08:51.183Z,62.79
2023-05-12T16:11:19.149Z,62.24
2023-05-12T16:13:47.112Z,61.62
2023-05-12T16:16:15.239Z,61.87
2023-05-12T16:18:45.080Z,61.65
2023-05-12T16:21:13.031Z,61.02
2023-05-12T16:23:41.051Z,60.54
2023-05-12T16:26:08.947Z,61.17
2023-05-12T16:28:36.833Z,61.29
2023-05-12T16:31:04.875Z,61.70
2023-05-12T16:33:32.853Z,63.79
2023-05-12T16:36:02.208Z,63.70
2023-05-12T16:38:32.350Z,65.03
2023-05-12T16:41:01.878Z,64.77
2023-05-12T16:43:29.850Z,64.36
2023-05-12T16:46:01.820Z,64.78
2023-05-12T16:48:34.131Z,64.99
2023-05-12T16:51:06.770Z,64.76
2023-05-12T16:53:34.668Z,65.72
2023-05-12T16:56:02.680Z,65.70
2023-05-12T16:58:33.074Z,65.79
2023-05-12T17:01:01.710Z,65.34
2023-05-12T17:03:31.729Z,64.20
2023-05-12T17:05:59.738Z,64.15
2023-05-12T17:08:30.180Z,64.89
2023-05-12T17:10:58.280Z,65.63
2023-05-12T17:13:26.550Z,66.70
2023-05-12T17:15:54.554Z,67.24
2023-05-12T17:18:24.815Z,67.17
2023-05-12T17:20:53.614Z,66.61
2023-05-12T17:23:21.712Z,66.96
2023-05-12T17:25:52.362Z,66.81
2023-05-12T17:28:21.259Z,66.39
2023-05-12T17:30:50.554Z,66.22
2023-05-12T17:33:18.874Z,66.02
2023-05-12T17:35:59.553Z,65.36
2023-05-12T17:38:36.074Z,64.84
2023-05-12T17:41:07.526Z,64.69
2023-05-12T17:43:35.646Z,65.29
2023-05-12T17:46:04.761Z,65.18
2023-05-12T17:48:33.648Z,64.79
2023-05-12T17:51:04.513Z,64.56
2023-05-12T17:53:33.722Z,65.27
2023-05-12T17:56:02.241Z,65.33
2023-05-12T17:58:31.532Z,65.33
2023-05-12T18:00:59.316Z,65.58
2023-05-12T18:03:27.320Z,66.39
2023-05-12T18:05:55.548Z,66.03
2023-05-12T18:08:24.366Z,65.93
2023-05-12T18:10:52.414Z,65.76
2023-05-12T18:13:21.125Z,66.39
2023-05-12T18:15:53.507Z,66.63
2023-05-12T18:18:22.246Z,65.75
2023-05-12T18:20:52.537Z,65.89
2023-05-12T18:23:20.496Z,65.63
2023-05-12T18:25:49.681Z,66.01
2023-05-12T18:28:17.700Z,65.60
2023-05-12T18:30:45.774Z,66.53
2023-05-12T18:33:15.192Z,66.98
2023-05-12T18:36:53.210Z,68.30
2023-05-12T18:39:47.492Z,68.45
2023-05-12T18:42:31.793Z,68.54
2023-05-12T19:09:49.790Z,70.43
2023-05-12T19:30:23.382Z,74.20
2023-05-12T20:05:31.650Z,73.62
2023-05-12T20:08:01.439Z,74.45
2023-05-12T20:10:29.307Z,74.54
2023-05-12T20:12:57.395Z,74.83
2023-05-12T20:15:28.520Z,73.98
2023-05-12T20:17:56.505Z,75.51
2023-05-12T20:20:27.421Z,75.93
2023-05-12T20:22:55.591Z,76.05
2023-05-12T20:25:27.106Z,75.29
2023-05-12T20:27:56.777Z,75.28
2023-05-12T20:30:24.973Z,75.23
2023-05-12T20:32:52.968Z,74.81
2023-05-12T20:35:21.636Z,75.23
2023-05-12T20:37:52.050Z,75.82
2023-05-12T20:40:20.720Z,75.33
2023-05-12T20:42:50.240Z,75.90
2023-05-12T20:45:21.115Z,76.27
2023-05-12T20:47:49.365Z,75.15
2023-05-12T20:50:17.320Z,75.01
2023-05-12T20:52:46.862Z,73.91
2023-05-12T20:55:14.742Z,75.66
2023-05-12T20:57:42.873Z,75.93
2023-05-12T21:00:13.786Z,75.60
2023-05-12T21:02:41.805Z,73.79
2023-05-12T21:05:10.330Z,74.16
2023-05-12T21:07:38.186Z,73.67
2023-05-12T21:10:08.177Z,74.15
2023-05-12T21:12:36.497Z,73.64
2023-05-12T21:15:05.286Z,73.17
2023-05-12T21:17:34.792Z,73.15
2023-05-12T21:20:02.629Z,73.31
2023-05-12T21:22:30.505Z,73.76
2023-05-12T21:24:58.423Z,72.46
2023-05-12T21:27:26.354Z,73.41
2023-05-12T21:29:54.419Z,73.27
2023-05-12T21:32:22.425Z,73.31
2023-05-12T21:34:52.049Z,74.05
2023-05-12T21:37:19.936Z,74.29
2023-05-12T21:39:47.886Z,75.36
2023-05-12T21:42:15.986Z,74.60
2023-05-12T21:44:43.901Z,73.83
2023-05-12T21:47:11.796Z,73.75
2023-05-12T21:49:40.277Z,74.43
2023-05-12T21:52:13.088Z,74.91
2023-05-12T21:54:41.018Z,75.13
2023-05-12T21:57:09.005Z,75.29
2023-05-12T21:59:36.919Z,75.00
2023-05-12T22:02:04.948Z,75.35
2023-05-12T22:04:32.629Z,74.86
2023-05-12T22:07:00.507Z,74.40
2023-05-12T22:09:31.303Z,74.25
2023-05-12T22:11:59.299Z,74.55
2023-05-12T22:14:27.171Z,75.28
2023-05-12T22:16:55.864Z,74.12
2023-05-12T22:19:23.769Z,73.82
2023-05-12T22:21:52.059Z,72.82
2023-05-12T22:24:19.823Z,73.35
2023-05-12T22:26:48.995Z,73.53
2023-05-12T22:29:16.770Z,73.97
2023-05-12T22:31:44.669Z,74.27
2023-05-12T22:34:12.952Z,74.52
2023-05-12T22:36:40.888Z,75.86
2023-05-12T22:39:08.997Z,77.26
2023-05-12T22:41:36.863Z,78.29
2023-05-12T22:44:06.232Z,79.17
2023-05-12T22:46:34.315Z,80.33
2023-05-12T22:49:02.131Z,81.17
2023-05-12T22:51:29.984Z,79.67
2023-05-12T22:53:57.848Z,79.65
2023-05-12T22:56:25.628Z,80.07
2023-05-12T22:58:53.287Z,80.77
2023-05-12T23:01:22.955Z,82.06
2023-05-12T23:03:51.027Z,82.77
2023-05-12T23:06:19.088Z,83.08
2023-05-12T23:08:47.030Z,82.59
2023-05-12T23:11:17.255Z,83.64
2023-05-12T23:13:45.025Z,84.34
2023-05-12T23:16:12.796Z,84.42
2023-05-12T23:18:42.150Z,84.84
2023-05-12T23:21:09.987Z,85.51
2023-05-12T23:23:38.174Z,85.74
2023-05-12T23:26:06.059Z,85.76
2023-05-12T23:28:33.802Z,86.83
2023-05-12T23:31:01.628Z,86.29
2023-05-12T23:33:29.462Z,86.21
2023-05-12T23:35:59.029Z,86.53
2023-05-12T23:38:26.797Z,86.99
2023-05-12T23:40:54.620Z,87.17
2023-05-12T23:43:22.347Z,86.97
2023-05-12T23:45:50.225Z,86.67
2023-05-12T23:48:18.062Z,87.15
2023-05-12T23:50:45.845Z,87.51
2023-05-12T23:53:15.001Z,88.19
2023-05-12T23:55:42.836Z,88.24
2023-05-12T23:58:11.143Z,88.44
